sensor_id;sensor_type;location;lat;lon;timestamp;temperature;humidity
63313;DHT22;49442;45.640;13.812;2023-04-12T00:01:48;10.60;86.60
63313;DHT22;49442;45.640;13.812;2023-04-12T00:04:14;10.60;86.80
63313;DHT22;49442;45.640;13.812;2023-04-12T00:06:41;10.80;85.50
63313;DHT22;49442;45.640;13.812;2023-04-12T00:09:07;10.90;85.20
63313;DHT22;49442;45.640;13.812;2023-04-12T00:11:33;10.90;84.40
63313;DHT22;49442;45.640;13.812;2023-04-12T00:13:59;11.00;84.10
63313;DHT22;49442;45.640;13.812;2023-04-12T00:16:25;11.00;83.80
63313;DHT22;49442;45.640;13.812;2023-04-12T00:18:51;10.90;84.30
63313;DHT22;49442;45.640;13.812;2023-04-12T00:21:16;10.70;85.10
63313;DHT22;49442;45.640;13.812;2023-04-12T00:23:47;10.60;85.70
63313;DHT22;49442;45.640;13.812;2023-04-12T00:26:14;10.50;85.50
63313;DHT22;49442;45.640;13.812;2023-04-12T00:28:41;10.50;84.50
63313;DHT22;49442;45.640;13.812;2023-04-12T00:31:07;10.60;84.40
63313;DHT22;49442;45.640;13.812;2023-04-12T00:33:33;10.60;85.00
63313;DHT22;49442;45.640;13.812;2023-04-12T00:35:59;10.60;85.70
63313;DHT22;49442;45.640;13.812;2023-04-12T00:38:25;10.50;86.00
63313;DHT22;49442;45.640;13.812;2023-04-12T00:40:51;10.60;85.30
63313;DHT22;49442;45.640;13.812;2023-04-12T00:43:16;10.70;84.40
63313;DHT22;49442;45.640;13.812;2023-04-12T00:45:45;10.70;84.70
63313;DHT22;49442;45.640;13.812;2023-04-12T00:48:12;10.60;85.20
63313;DHT22;49442;45.640;13.812;2023-04-12T00:50:39;10.40;86.70
63313;DHT22;49442;45.640;13.812;2023-04-12T00:53:12;10.20;87.20
63313;DHT22;49442;45.640;13.812;2023-04-12T00:55:45;10.10;87.80
63313;DHT22;49442;45.640;13.812;2023-04-12T00:58:12;10.00;88.90
63313;DHT22;49442;45.640;13.812;2023-04-12T01:00:38;10.00;89.30
63313;DHT22;49442;45.640;13.812;2023-04-12T01:03:04;9.90;89.60
63313;DHT22;49442;45.640;13.812;2023-04-12T01:05:38;9.80;89.50
63313;DHT22;49442;45.640;13.812;2023-04-12T01:08:29;9.80;90.00
63313;DHT22;49442;45.640;13.812;2023-04-12T01:11:08;9.70;90.50
63313;DHT22;49442;45.640;13.812;2023-04-12T01:13:44;9.80;90.50
63313;DHT22;49442;45.640;13.812;2023-04-12T01:16:45;9.70;90.60
63313;DHT22;49442;45.640;13.812;2023-04-12T01:27:25;9.90;90.50
63313;DHT22;49442;45.640;13.812;2023-04-12T01:29:55;9.90;90.40
63313;DHT22;49442;45.640;13.812;2023-04-12T01:32:22;9.90;90.40
63313;DHT22;49442;45.640;13.812;2023-04-12T01:34:48;10.00;89.60
63313;DHT22;49442;45.640;13.812;2023-04-12T01:37:15;10.20;88.80
63313;DHT22;49442;45.640;13.812;2023-04-12T01:39:44;10.30;88.40
63313;DHT22;49442;45.640;13.812;2023-04-12T01:42:11;10.40;88.10
63313;DHT22;49442;45.640;13.812;2023-04-12T01:44:36;10.50;87.90
63313;DHT22;49442;45.640;13.812;2023-04-12T01:47:02;10.60;87.90
63313;DHT22;49442;45.640;13.812;2023-04-12T01:49:36;10.60;87.70
63313;DHT22;49442;45.640;13.812;2023-04-12T01:52:12;10.60;87.70
63313;DHT22;49442;45.640;13.812;2023-04-12T01:54:40;10.50;88.30
63313;DHT22;49442;45.640;13.812;2023-04-12T01:57:07;10.50;88.30
63313;DHT22;49442;45.640;13.812;2023-04-12T01:59:43;10.50;88.40
63313;DHT22;49442;45.640;13.812;2023-04-12T02:02:11;10.50;88.10
63313;DHT22;49442;45.640;13.812;2023-04-12T02:04:37;10.50;88.30
63313;DHT22;49442;45.640;13.812;2023-04-12T02:07:03;10.40;88.60
63313;DHT22;49442;45.640;13.812;2023-04-12T02:09:29;10.40;88.40
63313;DHT22;49442;45.640;13.812;2023-04-12T02:12:00;10.40;89.10
63313;DHT22;49442;45.640;13.812;2023-04-12T02:14:26;10.30;89.20
63313;DHT22;49442;45.640;13.812;2023-04-12T02:16:52;10.30;89.50
63313;DHT22;49442;45.640;13.812;2023-04-12T02:19:20;10.30;89.70
63313;DHT22;49442;45.640;13.812;2023-04-12T02:21:45;10.30;89.80
63313;DHT22;49442;45.640;13.812;2023-04-12T02:24:11;10.30;89.80
63313;DHT22;49442;45.640;13.812;2023-04-12T02:26:38;10.30;89.60
63313;DHT22;49442;45.640;13.812;2023-04-12T02:29:05;10.40;89.40
63313;DHT22;49442;45.640;13.812;2023-04-12T02:31:34;10.40;89.40
63313;DHT22;49442;45.640;13.812;2023-04-12T02:34:01;10.40;89.60
63313;DHT22;49442;45.640;13.812;2023-04-12T02:36:28;10.40;88.90
63313;DHT22;49442;45.640;13.812;2023-04-12T02:38:54;10.40;89.60
63313;DHT22;49442;45.640;13.812;2023-04-12T02:41:21;10.40;89.90
63313;DHT22;49442;45.640;13.812;2023-04-12T02:43:47;10.30;89.90
63313;DHT22;49442;45.640;13.812;2023-04-12T02:46:16;10.20;90.10
63313;DHT22;49442;45.640;13.812;2023-04-12T02:48:44;10.20;90.10
63313;DHT22;49442;45.640;13.812;2023-04-12T02:51:10;10.30;90.20
63313;DHT22;49442;45.640;13.812;2023-04-12T02:53:36;10.40;90.10
63313;DHT22;49442;45.640;13.812;2023-04-12T02:56:03;10.30;90.20
63313;DHT22;49442;45.640;13.812;2023-04-12T02:58:29;10.30;90.40
63313;DHT22;49442;45.640;13.812;2023-04-12T03:00:55;10.30;90.20
63313;DHT22;49442;45.640;13.812;2023-04-12T03:03:22;10.20;90.90
63313;DHT22;49442;45.640;13.812;2023-04-12T03:05:49;10.10;90.50
63313;DHT22;49442;45.640;13.812;2023-04-12T03:08:15;10.10;90.90
63313;DHT22;49442;45.640;13.812;2023-04-12T03:10:41;10.00;90.80
63313;DHT22;49442;45.640;13.812;2023-04-12T03:13:06;10.00;90.90
63313;DHT22;49442;45.640;13.812;2023-04-12T03:15:32;10.00;91.20
63313;DHT22;49442;45.640;13.812;2023-04-12T03:17:58;10.00;91.10
63313;DHT22;49442;45.640;13.812;2023-04-12T03:20:23;10.00;91.00
63313;DHT22;49442;45.640;13.812;2023-04-12T03:22:50;10.00;91.10
63313;DHT22;49442;45.640;13.812;2023-04-12T03:25:16;10.00;90.60
63313;DHT22;49442;45.640;13.812;2023-04-12T03:27:44;10.10;90.70
63313;DHT22;49442;45.640;13.812;2023-04-12T03:30:10;10.10;90.80
63313;DHT22;49442;45.640;13.812;2023-04-12T03:32:41;10.10;90.70
63313;DHT22;49442;45.640;13.812;2023-04-12T03:35:08;10.10;90.60
63313;DHT22;49442;45.640;13.812;2023-04-12T03:37:34;10.00;90.90
63313;DHT22;49442;45.640;13.812;2023-04-12T03:40:00;10.00;90.60
63313;DHT22;49442;45.640;13.812;2023-04-12T03:42:27;10.00;90.70
63313;DHT22;49442;45.640;13.812;2023-04-12T03:44:53;10.00;90.70
63313;DHT22;49442;45.640;13.812;2023-04-12T03:47:19;9.90;91.00
63313;DHT22;49442;45.640;13.812;2023-04-12T03:49:48;9.90;90.90
63313;DHT22;49442;45.640;13.812;2023-04-12T03:52:14;9.90;90.80
63313;DHT22;49442;45.640;13.812;2023-04-12T03:54:40;10.00;90.70
63313;DHT22;49442;45.640;13.812;2023-04-12T03:57:06;10.00;90.60
63313;DHT22;49442;45.640;13.812;2023-04-12T03:59:32;10.10;90.50
63313;DHT22;49442;45.640;13.812;2023-04-12T04:01:58;10.10;90.60
63313;DHT22;49442;45.640;13.812;2023-04-12T04:04:26;10.10;90.60
63313;DHT22;49442;45.640;13.812;2023-04-12T04:06:52;10.10;90.70
63313;DHT22;49442;45.640;13.812;2023-04-12T04:09:18;10.10;90.50
63313;DHT22;49442;45.640;13.812;2023-04-12T04:11:44;10.30;90.40
63313;DHT22;49442;45.640;13.812;2023-04-12T04:14:11;10.40;90.30
63313;DHT22;49442;45.640;13.812;2023-04-12T04:16:37;10.50;89.90
63313;DHT22;49442;45.640;13.812;2023-04-12T04:19:03;10.60;89.70
63313;DHT22;49442;45.640;13.812;2023-04-12T04:21:29;10.70;89.60
63313;DHT22;49442;45.640;13.812;2023-04-12T04:23:55;10.70;89.40
63313;DHT22;49442;45.640;13.812;2023-04-12T04:26:23;10.70;88.80
63313;DHT22;49442;45.640;13.812;2023-04-12T04:28:56;10.70;89.20
63313;DHT22;49442;45.640;13.812;2023-04-12T04:31:27;10.70;89.30
63313;DHT22;49442;45.640;13.812;2023-04-12T04:33:59;10.70;89.80
63313;DHT22;49442;45.640;13.812;2023-04-12T04:36:26;10.60;89.90
63313;DHT22;49442;45.640;13.812;2023-04-12T04:38:51;10.60;90.00
63313;DHT22;49442;45.640;13.812;2023-04-12T04:41:17;10.60;90.00
63313;DHT22;49442;45.640;13.812;2023-04-12T04:43:47;10.60;90.70
63313;DHT22;49442;45.640;13.812;2023-04-12T04:46:13;10.50;90.70
63313;DHT22;49442;45.640;13.812;2023-04-12T04:48:39;10.50;90.80
63313;DHT22;49442;45.640;13.812;2023-04-12T04:51:06;10.50;91.10
63313;DHT22;49442;45.640;13.812;2023-04-12T04:53:31;10.40;90.70
63313;DHT22;49442;45.640;13.812;2023-04-12T04:55:58;10.40;91.10
63313;DHT22;49442;45.640;13.812;2023-04-12T04:58:24;10.40;90.90
63313;DHT22;49442;45.640;13.812;2023-04-12T05:00:50;10.50;91.00
63313;DHT22;49442;45.640;13.812;2023-04-12T05:03:20;10.50;91.60
63313;DHT22;49442;45.640;13.812;2023-04-12T05:05:50;10.50;91.50
63313;DHT22;49442;45.640;13.812;2023-04-12T05:08:16;10.40;91.00
63313;DHT22;49442;45.640;13.812;2023-04-12T05:10:44;10.50;91.50
63313;DHT22;49442;45.640;13.812;2023-04-12T05:13:10;10.50;91.10
63313;DHT22;49442;45.640;13.812;2023-04-12T05:15:39;10.50;90.90
63313;DHT22;49442;45.640;13.812;2023-04-12T05:18:05;10.60;91.30
63313;DHT22;49442;45.640;13.812;2023-04-12T05:20:30;10.60;90.10
63313;DHT22;49442;45.640;13.812;2023-04-12T05:22:56;10.70;90.10
63313;DHT22;49442;45.640;13.812;2023-04-12T05:25:22;10.80;90.60
63313;DHT22;49442;45.640;13.812;2023-04-12T05:27:48;10.80;91.20
63313;DHT22;49442;45.640;13.812;2023-04-12T05:30:14;10.80;91.40
63313;DHT22;49442;45.640;13.812;2023-04-12T05:32:43;10.80;91.70
63313;DHT22;49442;45.640;13.812;2023-04-12T05:35:12;10.80;91.50
63313;DHT22;49442;45.640;13.812;2023-04-12T05:37:38;10.90;90.20
63313;DHT22;49442;45.640;13.812;2023-04-12T05:40:04;10.90;90.50
63313;DHT22;49442;45.640;13.812;2023-04-12T05:42:31;11.00;89.90
63313;DHT22;49442;45.640;13.812;2023-04-12T05:44:57;11.10;90.60
63313;DHT22;49442;45.640;13.812;2023-04-12T05:47:23;11.10;91.10
63313;DHT22;49442;45.640;13.812;2023-04-12T05:49:49;11.10;90.70
63313;DHT22;49442;45.640;13.812;2023-04-12T05:52:20;11.20;89.60
63313;DHT22;49442;45.640;13.812;2023-04-12T05:54:51;11.20;90.30
63313;DHT22;49442;45.640;13.812;2023-04-12T05:57:17;11.30;91.50
63313;DHT22;49442;45.640;13.812;2023-04-12T05:59:43;11.30;91.20
63313;DHT22;49442;45.640;13.812;2023-04-12T06:02:09;11.30;88.40
63313;DHT22;49442;45.640;13.812;2023-04-12T06:04:35;11.40;88.20
63313;DHT22;49442;45.640;13.812;2023-04-12T06:07:05;11.50;87.70
63313;DHT22;49442;45.640;13.812;2023-04-12T06:09:32;11.60;89.90
63313;DHT22;49442;45.640;13.812;2023-04-12T06:11:58;11.70;87.10
63313;DHT22;49442;45.640;13.812;2023-04-12T06:14:24;11.80;89.40
63313;DHT22;49442;45.640;13.812;2023-04-12T06:16:50;12.00;88.20
63313;DHT22;49442;45.640;13.812;2023-04-12T06:19:16;12.20;84.70
63313;DHT22;49442;45.640;13.812;2023-04-12T06:21:42;12.30;85.60
63313;DHT22;49442;45.640;13.812;2023-04-12T06:24:07;12.40;84.60
63313;DHT22;49442;45.640;13.812;2023-04-12T06:26:33;12.50;85.80
63313;DHT22;49442;45.640;13.812;2023-04-12T06:29:03;12.40;83.30
63313;DHT22;49442;45.640;13.812;2023-04-12T06:31:29;12.40;83.80
63313;DHT22;49442;45.640;13.812;2023-04-12T06:33:54;12.40;84.50
63313;DHT22;49442;45.640;13.812;2023-04-12T06:36:21;12.40;87.70
63313;DHT22;49442;45.640;13.812;2023-04-12T06:38:47;12.40;88.30
63313;DHT22;49442;45.640;13.812;2023-04-12T06:41:15;12.40;88.10
63313;DHT22;49442;45.640;13.812;2023-04-12T06:43:41;12.30;85.60
63313;DHT22;49442;45.640;13.812;2023-04-12T06:46:07;12.30;86.20
63313;DHT22;49442;45.640;13.812;2023-04-12T06:48:33;12.20;85.10
63313;DHT22;49442;45.640;13.812;2023-04-12T06:50:59;12.30;86.90
63313;DHT22;49442;45.640;13.812;2023-04-12T06:53:27;12.30;86.90
63313;DHT22;49442;45.640;13.812;2023-04-12T06:55:55;12.30;86.00
63313;DHT22;49442;45.640;13.812;2023-04-12T06:58:20;12.30;85.60
63313;DHT22;49442;45.640;13.812;2023-04-12T07:00:46;12.40;84.40
63313;DHT22;49442;45.640;13.812;2023-04-12T07:03:12;12.50;84.80
63313;DHT22;49442;45.640;13.812;2023-04-12T07:05:38;12.40;84.70
63313;DHT22;49442;45.640;13.812;2023-04-12T07:08:04;12.40;83.10
63313;DHT22;49442;45.640;13.812;2023-04-12T07:10:30;12.50;82.90
63313;DHT22;49442;45.640;13.812;2023-04-12T07:12:57;12.60;84.30
63313;DHT22;49442;45.640;13.812;2023-04-12T07:15:34;12.60;84.70
63313;DHT22;49442;45.640;13.812;2023-04-12T07:18:01;12.60;82.00
63313;DHT22;49442;45.640;13.812;2023-04-12T07:20:30;12.60;81.70
63313;DHT22;49442;45.640;13.812;2023-04-12T07:23:15;12.60;82.40
63313;DHT22;49442;45.640;13.812;2023-04-12T07:25:41;12.60;82.00
63313;DHT22;49442;45.640;13.812;2023-04-12T07:28:10;12.60;86.20
63313;DHT22;49442;45.640;13.812;2023-04-12T07:30:38;12.60;85.40
63313;DHT22;49442;45.640;13.812;2023-04-12T07:33:04;12.60;82.60
63313;DHT22;49442;45.640;13.812;2023-04-12T07:35:37;12.60;81.80
63313;DHT22;49442;45.640;13.812;2023-04-12T07:38:03;12.60;82.70
63313;DHT22;49442;45.640;13.812;2023-04-12T07:40:32;12.70;78.80
63313;DHT22;49442;45.640;13.812;2023-04-12T07:43:01;12.80;85.30
63313;DHT22;49442;45.640;13.812;2023-04-12T07:45:30;12.90;87.70
63313;DHT22;49442;45.640;13.812;2023-04-12T07:47:56;13.10;83.80
63313;DHT22;49442;45.640;13.812;2023-04-12T07:50:22;13.30;83.80
63313;DHT22;49442;45.640;13.812;2023-04-12T07:52:51;13.50;77.80
63313;DHT22;49442;45.640;13.812;2023-04-12T07:55:17;13.80;80.80
63313;DHT22;49442;45.640;13.812;2023-04-12T07:57:43;14.10;77.50
63313;DHT22;49442;45.640;13.812;2023-04-12T08:00:09;14.50;75.00
63313;DHT22;49442;45.640;13.812;2023-04-12T08:02:35;14.60;74.80
63313;DHT22;49442;45.640;13.812;2023-04-12T08:05:01;14.70;73.00
63313;DHT22;49442;45.640;13.812;2023-04-12T08:07:26;15.00;71.60
63313;DHT22;49442;45.640;13.812;2023-04-12T08:09:52;15.30;69.10
63313;DHT22;49442;45.640;13.812;2023-04-12T08:12:18;15.60;69.50
63313;DHT22;49442;45.640;13.812;2023-04-12T08:14:45;15.70;69.10
63313;DHT22;49442;45.640;13.812;2023-04-12T08:17:11;15.90;66.50
63313;DHT22;49442;45.640;13.812;2023-04-12T08:19:37;16.00;66.60
63313;DHT22;49442;45.640;13.812;2023-04-12T08:22:02;16.00;65.90
63313;DHT22;49442;45.640;13.812;2023-04-12T08:24:28;15.80;66.20
63313;DHT22;49442;45.640;13.812;2023-04-12T08:26:55;15.70;66.30
63313;DHT22;49442;45.640;13.812;2023-04-12T08:29:20;15.60;68.10
63313;DHT22;49442;45.640;13.812;2023-04-12T08:31:46;15.60;66.50
63313;DHT22;49442;45.640;13.812;2023-04-12T08:34:11;15.50;66.50
63313;DHT22;49442;45.640;13.812;2023-04-12T08:36:37;15.40;69.00
63313;DHT22;49442;45.640;13.812;2023-04-12T08:39:03;15.20;68.10
63313;DHT22;49442;45.640;13.812;2023-04-12T08:41:28;15.10;70.40
63313;DHT22;49442;45.640;13.812;2023-04-12T08:43:54;15.00;69.30
63313;DHT22;49442;45.640;13.812;2023-04-12T08:46:20;15.00;70.80
63313;DHT22;49442;45.640;13.812;2023-04-12T08:48:48;15.00;69.70
63313;DHT22;49442;45.640;13.812;2023-04-12T08:51:16;14.90;69.70
63313;DHT22;49442;45.640;13.812;2023-04-12T08:53:42;15.00;71.30
63313;DHT22;49442;45.640;13.812;2023-04-12T08:56:12;15.00;70.80
63313;DHT22;49442;45.640;13.812;2023-04-12T08:58:39;15.10;69.10
63313;DHT22;49442;45.640;13.812;2023-04-12T09:01:13;15.10;67.40
63313;DHT22;49442;45.640;13.812;2023-04-12T09:03:43;15.10;66.00
63313;DHT22;49442;45.640;13.812;2023-04-12T09:06:09;15.10;69.10
63313;DHT22;49442;45.640;13.812;2023-04-12T09:08:35;15.00;68.80
63313;DHT22;49442;45.640;13.812;2023-04-12T09:11:02;15.00;68.40
63313;DHT22;49442;45.640;13.812;2023-04-12T09:13:45;15.00;69.40
63313;DHT22;49442;45.640;13.812;2023-04-12T09:16:10;15.10;71.00
63313;DHT22;49442;45.640;13.812;2023-04-12T09:18:57;15.10;71.40
63313;DHT22;49442;45.640;13.812;2023-04-12T09:21:26;15.10;74.10
63313;DHT22;49442;45.640;13.812;2023-04-12T09:24:08;15.10;74.30
63313;DHT22;49442;45.640;13.812;2023-04-12T09:26:36;15.20;74.00
63313;DHT22;49442;45.640;13.812;2023-04-12T09:29:03;15.30;73.20
63313;DHT22;49442;45.640;13.812;2023-04-12T09:31:29;15.40;69.40
63313;DHT22;49442;45.640;13.812;2023-04-12T09:34:21;15.50;70.80
63313;DHT22;49442;45.640;13.812;2023-04-12T09:36:47;15.60;70.70
63313;DHT22;49442;45.640;13.812;2023-04-12T09:39:13;15.70;70.20
63313;DHT22;49442;45.640;13.812;2023-04-12T09:41:39;15.80;68.20
63313;DHT22;49442;45.640;13.812;2023-04-12T09:44:05;15.80;68.70
63313;DHT22;49442;45.640;13.812;2023-04-12T09:46:30;15.80;67.90
63313;DHT22;49442;45.640;13.812;2023-04-12T09:48:57;15.80;67.60
63313;DHT22;49442;45.640;13.812;2023-04-12T09:51:33;15.90;67.00
63313;DHT22;49442;45.640;13.812;2023-04-12T09:54:05;15.90;68.80
63313;DHT22;49442;45.640;13.812;2023-04-12T09:56:33;16.00;69.70
63313;DHT22;49442;45.640;13.812;2023-04-12T09:59:06;16.10;69.30
63313;DHT22;49442;45.640;13.812;2023-04-12T10:01:39;16.40;69.30
63313;DHT22;49442;45.640;13.812;2023-04-12T10:04:07;16.50;69.30
63313;DHT22;49442;45.640;13.812;2023-04-12T10:06:33;16.70;69.10
63313;DHT22;49442;45.640;13.812;2023-04-12T10:09:02;16.70;67.90
63313;DHT22;49442;45.640;13.812;2023-04-12T10:11:29;16.80;67.90
63313;DHT22;49442;45.640;13.812;2023-04-12T10:13:58;16.80;68.10
63313;DHT22;49442;45.640;13.812;2023-04-12T10:16:26;17.00;68.90
63313;DHT22;49442;45.640;13.812;2023-04-12T10:18:54;17.10;67.30
63313;DHT22;49442;45.640;13.812;2023-04-12T10:21:20;17.10;66.80
63313;DHT22;49442;45.640;13.812;2023-04-12T10:23:46;16.90;66.30
63313;DHT22;49442;45.640;13.812;2023-04-12T10:26:14;16.80;65.20
63313;DHT22;49442;45.640;13.812;2023-04-12T10:28:42;16.80;67.90
63313;DHT22;49442;45.640;13.812;2023-04-12T10:31:28;16.80;67.60
63313;DHT22;49442;45.640;13.812;2023-04-12T10:33:55;16.70;68.60
63313;DHT22;49442;45.640;13.812;2023-04-12T10:36:53;16.60;69.10
63313;DHT22;49442;45.640;13.812;2023-04-12T10:39:42;16.40;69.60
63313;DHT22;49442;45.640;13.812;2023-04-12T10:42:27;16.30;70.70
63313;DHT22;49442;45.640;13.812;2023-04-12T10:55:37;16.30;67.80
63313;DHT22;49442;45.640;13.812;2023-04-12T10:58:03;16.30;67.60
63313;DHT22;49442;45.640;13.812;2023-04-12T11:03:23;16.30;67.00
63313;DHT22;49442;45.640;13.812;2023-04-12T11:06:04;16.20;67.70
63313;DHT22;49442;45.640;13.812;2023-04-12T11:08:31;16.10;67.60
63313;DHT22;49442;45.640;13.812;2023-04-12T11:11:16;16.30;68.30
63313;DHT22;49442;45.640;13.812;2023-04-12T11:13:42;16.40;68.10
63313;DHT22;49442;45.640;13.812;2023-04-12T11:16:09;16.40;66.80
63313;DHT22;49442;45.640;13.812;2023-04-12T11:18:37;16.60;65.60
63313;DHT22;49442;45.640;13.812;2023-04-12T11:21:04;16.60;67.20
63313;DHT22;49442;45.640;13.812;2023-04-12T11:23:31;16.90;66.70
63313;DHT22;49442;45.640;13.812;2023-04-12T11:25:57;17.00;65.80
63313;DHT22;49442;45.640;13.812;2023-04-12T11:28:23;17.20;66.00
63313;DHT22;49442;45.640;13.812;2023-04-12T11:30:54;17.30;64.60
63313;DHT22;49442;45.640;13.812;2023-04-12T11:33:39;17.40;66.00
63313;DHT22;49442;45.640;13.812;2023-04-12T11:36:08;17.20;65.00
63313;DHT22;49442;45.640;13.812;2023-04-12T11:38:35;17.40;65.20
63313;DHT22;49442;45.640;13.812;2023-04-12T11:41:02;17.40;65.60
63313;DHT22;49442;45.640;13.812;2023-04-12T11:43:29;17.30;64.40
63313;DHT22;49442;45.640;13.812;2023-04-12T11:45:58;17.10;65.80
63313;DHT22;49442;45.640;13.812;2023-04-12T11:48:25;17.30;66.40
63313;DHT22;49442;45.640;13.812;2023-04-12T11:50:51;17.20;66.90
63313;DHT22;49442;45.640;13.812;2023-04-12T11:53:18;17.30;66.30
63313;DHT22;49442;45.640;13.812;2023-04-12T11:55:49;17.20;67.10
63313;DHT22;49442;45.640;13.812;2023-04-12T11:58:22;17.10;66.30
63313;DHT22;49442;45.640;13.812;2023-04-12T12:00:47;17.10;66.30
63313;DHT22;49442;45.640;13.812;2023-04-12T12:03:13;17.10;67.20
63313;DHT22;49442;45.640;13.812;2023-04-12T12:05:40;17.10;66.90
63313;DHT22;49442;45.640;13.812;2023-04-12T12:08:07;17.10;64.50
63313;DHT22;49442;45.640;13.812;2023-04-12T12:10:37;17.10;63.40
63313;DHT22;49442;45.640;13.812;2023-04-12T12:13:13;17.00;64.40
63313;DHT22;49442;45.640;13.812;2023-04-12T12:15:42;17.00;65.20
63313;DHT22;49442;45.640;13.812;2023-04-12T12:18:09;16.90;64.80
63313;DHT22;49442;45.640;13.812;2023-04-12T12:20:47;16.90;65.10
63313;DHT22;49442;45.640;13.812;2023-04-12T12:23:29;16.80;65.40
63313;DHT22;49442;45.640;13.812;2023-04-12T12:25:59;16.60;64.80
63313;DHT22;49442;45.640;13.812;2023-04-12T12:28:25;16.60;67.90
63313;DHT22;49442;45.640;13.812;2023-04-12T12:30:55;16.70;66.70
63313;DHT22;49442;45.640;13.812;2023-04-12T12:33:22;16.80;65.00
63313;DHT22;49442;45.640;13.812;2023-04-12T12:35:56;16.80;67.40
63313;DHT22;49442;45.640;13.812;2023-04-12T12:38:21;16.90;66.40
63313;DHT22;49442;45.640;13.812;2023-04-12T12:40:47;16.90;65.70
63313;DHT22;49442;45.640;13.812;2023-04-12T12:43:20;16.90;65.00
63313;DHT22;49442;45.640;13.812;2023-04-12T12:45:46;17.00;66.10
63313;DHT22;49442;45.640;13.812;2023-04-12T12:48:12;17.20;65.20
63313;DHT22;49442;45.640;13.812;2023-04-12T12:50:38;17.20;63.50
63313;DHT22;49442;45.640;13.812;2023-04-12T12:53:04;17.30;64.50
63313;DHT22;49442;45.640;13.812;2023-04-12T12:55:34;17.40;64.10
63313;DHT22;49442;45.640;13.812;2023-04-12T12:58:00;17.30;62.30
63313;DHT22;49442;45.640;13.812;2023-04-12T13:00:27;17.50;64.10
63313;DHT22;49442;45.640;13.812;2023-04-12T13:02:53;17.50;63.30
63313;DHT22;49442;45.640;13.812;2023-04-12T13:05:38;17.30;63.60
63313;DHT22;49442;45.640;13.812;2023-04-12T13:08:03;17.00;62.50
63313;DHT22;49442;45.640;13.812;2023-04-12T13:10:30;17.00;64.20
63313;DHT22;49442;45.640;13.812;2023-04-12T13:12:56;17.00;63.80
63313;DHT22;49442;45.640;13.812;2023-04-12T13:15:23;17.20;66.30
63313;DHT22;49442;45.640;13.812;2023-04-12T13:17:50;17.30;64.30
63313;DHT22;49442;45.640;13.812;2023-04-12T13:20:16;17.20;63.10
63313;DHT22;49442;45.640;13.812;2023-04-12T13:22:41;17.30;63.90
63313;DHT22;49442;45.640;13.812;2023-04-12T13:25:07;17.30;63.30
63313;DHT22;49442;45.640;13.812;2023-04-12T13:27:33;17.50;63.30
63313;DHT22;49442;45.640;13.812;2023-04-12T13:29:59;17.60;63.50
63313;DHT22;49442;45.640;13.812;2023-04-12T13:32:25;17.60;63.20
63313;DHT22;49442;45.640;13.812;2023-04-12T13:34:51;17.60;62.90
63313;DHT22;49442;45.640;13.812;2023-04-12T13:37:17;17.50;63.80
63313;DHT22;49442;45.640;13.812;2023-04-12T13:39:43;17.60;63.60
63313;DHT22;49442;45.640;13.812;2023-04-12T13:42:09;17.50;63.80
63313;DHT22;49442;45.640;13.812;2023-04-12T13:44:35;17.40;64.40
63313;DHT22;49442;45.640;13.812;2023-04-12T13:47:01;17.30;64.50
63313;DHT22;49442;45.640;13.812;2023-04-12T13:49:27;17.20;64.20
63313;DHT22;49442;45.640;13.812;2023-04-12T13:51:53;17.10;64.30
63313;DHT22;49442;45.640;13.812;2023-04-12T13:54:18;16.90;64.60
63313;DHT22;49442;45.640;13.812;2023-04-12T13:56:46;16.80;63.80
63313;DHT22;49442;45.640;13.812;2023-04-12T13:59:12;16.70;63.90
63313;DHT22;49442;45.640;13.812;2023-04-12T14:01:38;16.40;63.70
63313;DHT22;49442;45.640;13.812;2023-04-12T14:04:05;16.40;65.70
63313;DHT22;49442;45.640;13.812;2023-04-12T14:06:31;16.30;65.10
63313;DHT22;49442;45.640;13.812;2023-04-12T14:08:57;16.30;66.00
63313;DHT22;49442;45.640;13.812;2023-04-12T14:11:23;16.20;66.50
63313;DHT22;49442;45.640;13.812;2023-04-12T14:13:52;16.20;67.90
63313;DHT22;49442;45.640;13.812;2023-04-12T14:16:18;16.00;67.40
63313;DHT22;49442;45.640;13.812;2023-04-12T14:18:44;15.90;68.20
63313;DHT22;49442;45.640;13.812;2023-04-12T14:21:10;15.90;68.30
63313;DHT22;49442;45.640;13.812;2023-04-12T14:23:35;15.80;69.50
63313;DHT22;49442;45.640;13.812;2023-04-12T14:26:01;15.70;70.20
63313;DHT22;49442;45.640;13.812;2023-04-12T14:28:27;15.60;70.00
63313;DHT22;49442;45.640;13.812;2023-04-12T14:30:58;15.50;69.70
63313;DHT22;49442;45.640;13.812;2023-04-12T14:33:26;15.40;70.20
63313;DHT22;49442;45.640;13.812;2023-04-12T14:35:52;15.40;69.70
63313;DHT22;49442;45.640;13.812;2023-04-12T14:38:18;15.40;70.30
63313;DHT22;49442;45.640;13.812;2023-04-12T14:40:44;15.40;70.00
63313;DHT22;49442;45.640;13.812;2023-04-12T14:43:10;15.40;70.80
63313;DHT22;49442;45.640;13.812;2023-04-12T14:45:36;15.40;68.80
63313;DHT22;49442;45.640;13.812;2023-04-12T14:48:02;15.40;69.60
63313;DHT22;49442;45.640;13.812;2023-04-12T14:50:27;15.40;70.80
63313;DHT22;49442;45.640;13.812;2023-04-12T14:52:53;15.40;71.10
63313;DHT22;49442;45.640;13.812;2023-04-12T14:55:19;15.40;70.30
63313;DHT22;49442;45.640;13.812;2023-04-12T14:57:45;15.40;70.00
63313;DHT22;49442;45.640;13.812;2023-04-12T15:00:11;15.50;71.20
63313;DHT22;49442;45.640;13.812;2023-04-12T15:02:39;15.50;70.50
63313;DHT22;49442;45.640;13.812;2023-04-12T15:05:05;15.50;67.90
63313;DHT22;49442;45.640;13.812;2023-04-12T15:07:33;15.50;69.10
63313;DHT22;49442;45.640;13.812;2023-04-12T15:09:58;15.50;70.20
63313;DHT22;49442;45.640;13.812;2023-04-12T15:12:25;15.40;70.00
63313;DHT22;49442;45.640;13.812;2023-04-12T15:14:52;15.40;70.30
63313;DHT22;49442;45.640;13.812;2023-04-12T15:17:21;15.40;69.80
63313;DHT22;49442;45.640;13.812;2023-04-12T15:19:48;15.40;70.60
63313;DHT22;49442;45.640;13.812;2023-04-12T15:22:14;15.40;70.40
63313;DHT22;49442;45.640;13.812;2023-04-12T15:24:40;15.40;70.80
63313;DHT22;49442;45.640;13.812;2023-04-12T15:27:06;15.40;71.60
63313;DHT22;49442;45.640;13.812;2023-04-12T15:29:33;15.40;71.00
63313;DHT22;49442;45.640;13.812;2023-04-12T15:31:59;15.40;71.90
63313;DHT22;49442;45.640;13.812;2023-04-12T15:34:24;15.40;70.70
63313;DHT22;49442;45.640;13.812;2023-04-12T15:36:53;15.30;71.70
63313;DHT22;49442;45.640;13.812;2023-04-12T15:39:19;15.30;71.40
63313;DHT22;49442;45.640;13.812;2023-04-12T15:41:45;15.30;71.60
63313;DHT22;49442;45.640;13.812;2023-04-12T15:44:11;15.30;71.90